createdAt,value
2022-08-12T00:01:02.078Z,22.88
2022-08-12T00:03:47.939Z,22.78
2022-08-12T00:06:35.542Z,22.71
2022-08-12T00:09:26.141Z,22.65
2022-08-12T00:12:12.949Z,22.79
2022-08-12T00:15:00.848Z,22.77
2022-08-12T00:17:47.062Z,22.54
2022-08-12T00:20:32.429Z,22.50
2022-08-12T00:23:20.891Z,22.54
2022-08-12T00:26:23.239Z,22.61
2022-08-12T00:29:11.593Z,22.40
2022-08-12T00:31:57.889Z,22.46
2022-08-12T00:34:45.670Z,22.28
2022-08-12T00:37:33.535Z,22.27
2022-08-12T00:40:20.648Z,22.33
2022-08-12T00:42:48.648Z,22.45
2022-08-12T00:45:16.789Z,22.49
2022-08-12T00:47:45.206Z,22.57
2022-08-12T00:50:18.271Z,22.39
2022-08-12T00:52:47.638Z,22.41
2022-08-12T00:55:18.589Z,22.28
2022-08-12T00:57:49.248Z,22.20
2022-08-12T01:00:21.463Z,21.98
2022-08-12T01:02:52.538Z,21.88
2022-08-12T01:05:40.020Z,21.87
2022-08-12T01:08:25.790Z,22.07
2022-08-12T01:11:14.839Z,22.17
2022-08-12T01:13:48.710Z,22.12
2022-08-12T01:16:22.644Z,22.26
2022-08-12T01:18:52.573Z,22.32
2022-08-12T01:21:44.882Z,22.33
2022-08-12T01:24:31.279Z,22.41
2022-08-12T01:27:03.437Z,22.51
2022-08-12T01:29:43.789Z,22.40
2022-08-12T01:32:14.223Z,22.38
2022-08-12T01:34:47.484Z,22.31
2022-08-12T01:37:20.210Z,22.52
2022-08-12T01:40:34.807Z,22.45
2022-08-12T01:42:46.551Z,22.32
2022-08-12T01:45:17.402Z,22.30
2022-08-12T01:47:58.192Z,22.23
2022-08-12T01:50:37.315Z,22.29
2022-08-12T01:53:09.186Z,22.22
2022-08-12T01:55:40.323Z,22.33
2022-08-12T01:58:19.673Z,22.28
2022-08-12T02:00:58.524Z,21.99
2022-08-12T02:04:16.546Z,21.78
2022-08-12T02:07:14.514Z,21.78
2022-08-12T02:10:50.237Z,21.93
2022-08-12T02:13:09.897Z,22.00
2022-08-12T02:15:49.682Z,21.96
2022-08-12T02:18:26.943Z,22.04
2022-08-12T02:21:02.345Z,21.92
2022-08-12T02:23:32.219Z,21.78
2022-08-12T02:26:05.278Z,21.75
2022-08-12T02:28:34.467Z,21.81
2022-08-12T02:31:06.735Z,21.60
2022-08-12T02:33:37.551Z,21.33
2022-08-12T02:36:07.030Z,21.19
2022-08-12T02:38:35.132Z,21.16
2022-08-12T02:41:06.840Z,21.04
2022-08-12T02:43:38.791Z,21.33
2022-08-12T02:46:14.939Z,21.15
2022-08-12T02:48:51.014Z,20.99
2022-08-12T02:51:20.598Z,21.26
2022-08-12T02:54:03.010Z,21.50
2022-08-12T02:56:37.268Z,21.48
2022-08-12T02:59:06.631Z,21.34
2022-08-12T03:01:47.821Z,21.31
2022-08-12T03:04:26.425Z,21.36
2022-08-12T03:07:02.158Z,21.07
2022-08-12T03:09:43.081Z,21.27
2022-08-12T03:12:25.502Z,21.30
2022-08-12T03:14:55.851Z,21.39
2022-08-12T03:17:30.264Z,21.33
2022-08-12T03:20:10.703Z,21.26
2022-08-12T03:22:41.543Z,21.46
2022-08-12T03:25:16.093Z,21.38
2022-08-12T03:27:49.598Z,21.46
2022-08-12T03:30:19.267Z,21.34
2022-08-12T03:32:51.649Z,20.97
2022-08-12T03:35:40.183Z,20.80
2022-08-12T03:38:15.983Z,20.52
2022-08-12T03:41:15.325Z,20.27
2022-08-12T03:44:10.269Z,20.15
2022-08-12T03:47:00.667Z,20.23
2022-08-12T03:49:47.656Z,20.27
2022-08-12T03:52:33.360Z,20.03
2022-08-12T03:55:19.313Z,20.13
2022-08-12T03:58:07.981Z,20.01
2022-08-12T04:00:37.849Z,19.89
2022-08-12T04:03:25.963Z,19.97
2022-08-12T04:05:56.728Z,20.05
2022-08-12T04:08:26.940Z,19.93
2022-08-12T04:11:13.312Z,19.89
2022-08-12T04:13:41.677Z,19.75
2022-08-12T04:16:13.571Z,19.71
2022-08-12T04:18:42.947Z,20.07
2022-08-12T04:21:12.316Z,20.09
2022-08-12T04:23:47.701Z,19.86
2022-08-12T04:26:17.121Z,19.79
2022-08-12T04:28:45.873Z,19.62
2022-08-12T04:31:14.649Z,19.70
2022-08-12T04:33:43.738Z,19.64
2022-08-12T04:36:13.095Z,19.50
2022-08-12T04:38:42.264Z,19.42
2022-08-12T04:41:10.797Z,19.29
2022-08-12T04:44:00.164Z,19.27
2022-08-12T04:46:33.604Z,19.21
2022-08-12T04:49:04.012Z,19.16
2022-08-12T04:51:34.155Z,18.99
2022-08-12T04:54:02.636Z,18.91
2022-08-12T04:56:35.516Z,18.80
2022-08-12T04:59:05.317Z,18.72
2022-08-12T05:01:33.318Z,18.63
2022-08-12T05:04:02.635Z,18.58
2022-08-12T05:06:30.690Z,18.59
2022-08-12T05:09:00.782Z,18.93
2022-08-12T05:11:29.234Z,19.11
2022-08-12T05:13:59.795Z,19.20
2022-08-12T05:16:32.426Z,19.25
2022-08-12T05:19:02.425Z,19.32
2022-08-12T05:21:30.710Z,19.36
2022-08-12T05:24:00.320Z,19.35
2022-08-12T05:26:29.325Z,19.52
2022-08-12T05:28:57.377Z,19.50
2022-08-12T05:31:45.502Z,19.54
2022-08-12T05:34:15.480Z,19.49
2022-08-12T05:36:44.731Z,19.51
2022-08-12T05:39:14.383Z,19.54
2022-08-12T05:41:42.297Z,19.67
2022-08-12T05:44:13.339Z,19.77
2022-08-12T05:46:41.369Z,19.83
2022-08-12T05:49:10.118Z,19.91
2022-08-12T05:51:42.367Z,19.95
2022-08-12T05:54:11.866Z,20.04
2022-08-12T05:56:41.960Z,20.14
2022-08-12T05:59:11.909Z,20.42
2022-08-12T06:02:10.885Z,20.45
2022-08-12T06:04:28.737Z,20.59
2022-08-12T06:06:56.900Z,20.70
2022-08-12T06:09:26.311Z,20.94
2022-08-12T06:12:04.449Z,21.29
2022-08-12T06:14:36.923Z,21.57
2022-08-12T06:17:09.465Z,21.80
2022-08-12T06:20:28.200Z,21.96
2022-08-12T06:22:26.707Z,22.29
2022-08-12T06:24:54.852Z,22.41
2022-08-12T06:27:24.282Z,22.60
2022-08-12T06:30:07.241Z,22.74
2022-08-12T06:33:04.342Z,22.99
2022-08-12T06:35:48.481Z,23.27
2022-08-12T06:38:17.507Z,23.44
2022-08-12T06:41:03.943Z,23.69
2022-08-12T06:44:04.521Z,23.89
2022-08-12T06:46:23.197Z,24.21
2022-08-12T06:48:56.948Z,24.22
2022-08-12T06:51:25.321Z,24.39
2022-08-12T06:53:53.533Z,24.64
2022-08-12T06:56:27.349Z,24.73
2022-08-12T06:59:11.163Z,24.87
2022-08-12T07:01:39.220Z,24.93
2022-08-12T07:04:35.366Z,25.17
2022-08-12T07:06:55.812Z,25.38
2022-08-12T07:09:58.069Z,25.14
2022-08-12T07:12:16.278Z,25.35
2022-08-12T07:14:48.871Z,25.74
2022-08-12T07:17:17.191Z,25.98
2022-08-12T07:19:46.742Z,26.18
2022-08-12T07:22:15.351Z,26.08
2022-08-12T07:24:43.444Z,26.52
2022-08-12T07:27:11.437Z,26.30
2022-08-12T07:29:58.161Z,26.74
2022-08-12T07:32:29.579Z,26.69
2022-08-12T07:34:57.719Z,26.77
2022-08-12T07:37:25.727Z,26.65
2022-08-12T07:39:59.532Z,26.64
2022-08-12T07:42:29.750Z,26.87
2022-08-12T07:44:59.975Z,26.83
2022-08-12T07:47:30.787Z,26.71
2022-08-12T07:50:03.273Z,27.39
2022-08-12T07:52:32.151Z,28.01
2022-08-12T07:55:01.036Z,27.61
2022-08-12T07:57:29.078Z,28.26
2022-08-12T07:59:57.078Z,28.88
2022-08-12T08:02:26.780Z,28.48
2022-08-12T08:05:00.574Z,27.99
2022-08-12T08:07:31.164Z,28.54
2022-08-12T08:10:00.820Z,29.09
2022-08-12T08:12:47.556Z,29.27
2022-08-12T08:15:16.493Z,29.31
2022-08-12T08:17:57.639Z,29.37
2022-08-12T08:20:29.349Z,29.50
2022-08-12T08:22:58.850Z,29.18
2022-08-12T08:25:36.221Z,29.01
2022-08-12T08:28:08.050Z,30.21
2022-08-12T08:30:39.236Z,30.84
2022-08-12T08:33:24.546Z,30.60
2022-08-12T08:36:02.240Z,30.55
2022-08-12T08:38:33.145Z,30.35
2022-08-12T08:42:16.661Z,30.71
2022-08-12T08:44:11.727Z,31.34
2022-08-12T08:46:40.326Z,30.48
2022-08-12T08:49:08.796Z,30.26
2022-08-12T08:51:38.935Z,30.37
2022-08-12T08:54:08.460Z,30.83
2022-08-12T08:56:43.786Z,31.07
2022-08-12T08:59:12.568Z,30.84
2022-08-12T09:01:44.333Z,31.41
2022-08-12T09:05:07.719Z,30.10
2022-08-12T09:07:18.160Z,30.47
2022-08-12T09:10:02.226Z,30.69
2022-08-12T09:12:54.784Z,30.94
2022-08-12T09:18:12.896Z,30.88
2022-08-12T09:20:43.591Z,29.94
2022-08-12T09:23:58.356Z,30.42
2022-08-12T09:26:04.473Z,31.01
2022-08-12T09:28:37.146Z,31.26
2022-08-12T09:32:06.991Z,30.96
2022-08-12T09:34:27.948Z,31.56
2022-08-12T09:36:57.969Z,30.86
2022-08-12T09:40:01.396Z,31.59
2022-08-12T09:42:43.630Z,31.34
2022-08-12T09:45:23.352Z,30.43
2022-08-12T09:47:57.080Z,30.75
2022-08-12T09:50:28.518Z,31.31
2022-08-12T09:53:15.396Z,30.99
2022-08-12T09:56:07.213Z,31.11
2022-08-12T09:58:57.077Z,31.27
2022-08-12T10:01:25.412Z,31.31
2022-08-12T10:04:06.062Z,32.14
2022-08-12T10:06:36.649Z,32.34
2022-08-12T10:09:06.707Z,32.41
2022-08-12T10:12:11.376Z,32.96
2022-08-12T10:14:49.968Z,32.35
2022-08-12T10:17:22.513Z,31.53
2022-08-12T10:19:52.899Z,30.82
2022-08-12T10:22:39.957Z,31.46
2022-08-12T10:26:18.370Z,32.53
2022-08-12T10:28:34.303Z,32.81
2022-08-12T10:31:05.080Z,32.40
2022-08-12T10:33:50.657Z,33.09
2022-08-12T10:36:40.483Z,32.78
2022-08-12T10:40:01.910Z,32.59
2022-08-12T10:42:29.474Z,33.29
2022-08-12T10:45:05.383Z,33.62
2022-08-12T10:48:19.164Z,33.52
2022-08-12T10:50:36.030Z,33.35
2022-08-12T10:53:15.642Z,32.97
2022-08-12T10:55:55.548Z,33.31
2022-08-12T10:58:27.921Z,33.26
2022-08-12T11:01:50.182Z,33.49
2022-08-12T11:04:26.564Z,32.92
2022-08-12T11:07:06.492Z,32.95
2022-08-12T11:09:54.413Z,32.87
2022-08-12T11:12:58.005Z,33.80
2022-08-12T11:15:19.425Z,33.66
2022-08-12T11:17:53.456Z,34.02
2022-08-12T11:20:24.353Z,32.06
2022-08-12T11:22:59.058Z,32.94
2022-08-12T11:25:55.709Z,33.02
2022-08-12T11:28:17.024Z,33.41
2022-08-12T11:31:01.876Z,33.72
2022-08-12T11:34:06.099Z,32.29
2022-08-12T11:36:21.806Z,33.97
2022-08-12T11:38:51.322Z,34.19
2022-08-12T11:41:27.857Z,34.66
2022-08-12T11:43:59.270Z,33.97
2022-08-12T11:46:27.427Z,34.13
2022-08-12T11:48:59.877Z,34.35
2022-08-12T11:51:27.901Z,33.59
2022-08-12T11:54:07.993Z,34.63
2022-08-12T11:56:44.824Z,34.58
2022-08-12T12:02:20.046Z,33.70
2022-08-12T12:04:52.151Z,33.62
2022-08-12T12:07:21.060Z,34.03
2022-08-12T12:09:52.221Z,34.55
2022-08-12T12:12:23.428Z,34.15
2022-08-12T12:14:54.877Z,33.50
2022-08-12T12:17:24.512Z,33.25
2022-08-12T12:19:55.130Z,33.77
2022-08-12T12:22:27.134Z,33.64
2022-08-12T12:24:59.286Z,34.29
2022-08-12T12:28:04.545Z,34.15
2022-08-12T12:30:34.978Z,34.07
2022-08-12T12:33:03.469Z,34.07
2022-08-12T12:36:06.099Z,34.14
2022-08-12T12:38:25.396Z,33.88
2022-08-12T12:40:54.756Z,33.13
2022-08-12T12:43:28.947Z,33.22
2022-08-12T12:46:10.638Z,33.91
2022-08-12T12:48:44.128Z,33.37
2022-08-12T12:51:48.988Z,33.11
2022-08-12T12:54:10.017Z,33.14
2022-08-12T12:56:41.802Z,32.79
2022-08-12T12:59:54.625Z,32.86
2022-08-12T13:02:07.580Z,33.15
2022-08-12T13:04:37.319Z,32.50
2022-08-12T13:07:07.844Z,31.60
2022-08-12T13:09:36.838Z,31.86
2022-08-12T13:12:09.024Z,32.10
2022-08-12T13:14:40.120Z,33.33
2022-08-12T13:17:11.302Z,33.76
2022-08-12T13:19:46.991Z,32.97
2022-08-12T13:22:21.442Z,32.49
2022-08-12T13:24:55.647Z,32.38
2022-08-12T13:27:35.180Z,32.39
2022-08-12T13:30:11.138Z,31.92
2022-08-12T13:32:42.382Z,32.09
2022-08-12T13:35:19.673Z,32.52
2022-08-12T13:38:02.597Z,33.13
2022-08-12T13:40:33.477Z,33.40
2022-08-12T13:43:02.622Z,33.11
2022-08-12T13:45:35.317Z,32.91
2022-08-12T13:48:06.415Z,34.04
2022-08-12T13:50:37.482Z,34.08
2022-08-12T13:53:24.004Z,34.15
2022-08-12T13:55:59.542Z,34.61
2022-08-12T13:58:34.756Z,34.79
2022-08-12T14:01:05.878Z,33.32
2022-08-12T14:03:51.265Z,32.87
2022-08-12T14:06:21.158Z,33.93
2022-08-12T14:08:50.752Z,33.76
2022-08-12T14:11:19.474Z,33.29
2022-08-12T14:14:04.259Z,33.54
2022-08-12T14:16:48.585Z,33.50
2022-08-12T14:19:25.016Z,33.61
2022-08-12T14:21:59.864Z,33.93
2022-08-12T14:24:40.076Z,33.60
2022-08-12T14:27:11.326Z,33.23
2022-08-12T14:30:04.272Z,32.90
2022-08-12T14:32:34.925Z,33.83
2022-08-12T14:35:06.462Z,33.89
2022-08-12T14:37:54.871Z,33.56
2022-08-12T14:40:29.195Z,33.63
2022-08-12T14:42:58.535Z,33.94
2022-08-12T14:45:44.430Z,33.56
2022-08-12T14:48:18.355Z,34.04
2022-08-12T14:51:03.307Z,34.02
2022-08-12T14:59:56.902Z,33.53
2022-08-12T15:02:23.137Z,32.83
2022-08-12T15:04:58.909Z,33.13
2022-08-12T15:07:34.370Z,32.49
2022-08-12T15:10:25.152Z,33.08
2022-08-12T15:13:07.206Z,33.30
2022-08-12T15:15:44.136Z,33.01
2022-08-12T15:18:21.163Z,32.72
2022-08-12T15:20:51.042Z,32.51
2022-08-12T15:23:21.549Z,31.86
2022-08-12T15:26:02.683Z,31.35
2022-08-12T15:28:34.710Z,30.87
2022-08-12T15:31:09.623Z,30.63
2022-08-12T15:33:54.206Z,31.08
2022-08-12T15:36:54.247Z,31.27
2022-08-12T15:39:16.821Z,30.85
2022-08-12T15:41:50.155Z,31.52
2022-08-12T15:44:41.796Z,31.94
2022-08-12T15:47:10.061Z,31.48
2022-08-12T15:49:43.183Z,31.36
2022-08-12T15:52:27.346Z,30.81
2022-08-12T15:54:58.741Z,31.09
2022-08-12T15:57:27.716Z,31.01
2022-08-12T16:00:07.655Z,31.12
2022-08-12T16:02:47.325Z,30.74
2022-08-12T16:06:10.357Z,30.74
2022-08-12T16:08:17.199Z,30.86
2022-08-12T16:10:48.463Z,31.09
2022-08-12T16:13:25.245Z,31.01
2022-08-12T16:16:03.441Z,31.40
2022-08-12T16:18:33.331Z,31.27
2022-08-12T16:21:02.204Z,31.34
2022-08-12T16:23:51.891Z,30.75
2022-08-12T16:26:20.475Z,30.39
2022-08-12T16:29:14.903Z,29.96
2022-08-12T16:31:45.593Z,29.61
2022-08-12T16:34:38.409Z,29.68
2022-08-12T16:37:07.689Z,29.63
2022-08-12T16:40:00.218Z,29.34
2022-08-12T16:42:27.760Z,29.18
2022-08-12T16:44:59.315Z,28.80
2022-08-12T16:47:29.084Z,28.49
2022-08-12T16:50:17.299Z,28.60
2022-08-12T16:52:48.591Z,28.50
2022-08-12T16:55:16.641Z,28.42
2022-08-12T16:57:48.567Z,28.39
2022-08-12T17:00:18.737Z,28.24
2022-08-12T17:02:50.657Z,28.34
2022-08-12T17:05:31.198Z,28.38
2022-08-12T17:08:01.112Z,28.47
2022-08-12T17:10:35.455Z,28.56
2022-08-12T17:13:10.268Z,28.67
2022-08-12T17:15:57.634Z,28.72
2022-08-12T17:18:43.026Z,28.81
2022-08-12T17:21:15.236Z,29.01
2022-08-12T17:23:53.091Z,29.06
2022-08-12T17:26:22.708Z,29.04
2022-08-12T17:28:59.061Z,29.22
2022-08-12T17:31:59.278Z,29.04
2022-08-12T17:34:33.418Z,28.79
2022-08-12T17:37:05.451Z,28.37
2022-08-12T17:40:12.667Z,28.43
2022-08-12T17:42:34.611Z,28.15
2022-08-12T17:45:18.055Z,28.05
2022-08-12T17:48:01.279Z,28.00
2022-08-12T17:50:33.253Z,27.83
2022-08-12T17:53:03.290Z,27.69
2022-08-12T17:55:44.436Z,27.66
2022-08-12T17:58:17.262Z,27.43
2022-08-12T18:00:47.338Z,27.40
2022-08-12T18:03:58.060Z,27.31
2022-08-12T18:06:14.011Z,27.23
2022-08-12T18:08:54.834Z,27.11
2022-08-12T18:12:04.749Z,26.86
2022-08-12T18:14:31.140Z,26.70
2022-08-12T18:17:01.037Z,26.48
2022-08-12T18:20:03.804Z,26.36
2022-08-12T18:22:21.943Z,26.21
2022-08-12T18:25:02.381Z,26.04
2022-08-12T18:27:44.358Z,25.79
2022-08-12T18:30:20.450Z,25.53
2022-08-12T18:33:03.462Z,25.43
2022-08-12T18:35:46.293Z,25.31
2022-08-12T18:38:18.475Z,25.13
2022-08-12T18:41:07.212Z,24.92
2022-08-12T18:43:59.338Z,24.64
2022-08-12T18:46:34.792Z,24.41
2022-08-12T18:49:17.828Z,24.21
2022-08-12T18:51:55.059Z,24.01
2022-08-12T18:54:34.644Z,23.83
2022-08-12T18:57:16.310Z,23.65
2022-08-12T19:00:01.780Z,23.42
2022-08-12T19:02:40.460Z,23.42
2022-08-12T19:05:11.739Z,23.38
2022-08-12T19:07:58.042Z,23.45
2022-08-12T19:10:31.594Z,23.40
2022-08-12T19:13:23.048Z,23.36
2022-08-12T19:15:54.986Z,23.35
2022-08-12T19:18:30.187Z,23.29
2022-08-12T19:21:06.348Z,23.25
2022-08-12T19:23:40.267Z,23.19
2022-08-12T19:26:10.729Z,23.07
2022-08-12T19:28:41.127Z,22.98
2022-08-12T19:31:58.481Z,22.91
2022-08-12T19:37:27.446Z,22.70
2022-08-12T19:40:20.427Z,22.49
2022-08-12T19:43:00.668Z,22.40
2022-08-12T19:45:41.936Z,22.37
2022-08-12T19:48:16.356Z,22.38
2022-08-12T19:50:50.475Z,22.40
2022-08-12T19:53:22.957Z,22.44
2022-08-12T19:55:53.539Z,22.39
2022-08-12T19:58:24.687Z,22.35
2022-08-12T20:00:54.626Z,22.37
2022-08-12T20:03:38.326Z,22.23
2022-08-12T20:06:13.465Z,22.10
2022-08-12T20:08:49.395Z,21.98
2022-08-12T20:12:12.969Z,21.88
2022-08-12T20:14:17.820Z,21.79
2022-08-12T20:16:51.971Z,21.67
2022-08-12T20:19:24.900Z,21.55
2022-08-12T20:22:23.504Z,21.47
2022-08-12T20:24:55.251Z,21.32
2022-08-12T20:27:29.330Z,21.29
2022-08-12T20:30:15.793Z,21.16
2022-08-12T20:32:53.844Z,21.11
2022-08-12T20:35:24.365Z,21.02
2022-08-12T20:38:06.202Z,20.92
2022-08-12T20:40:38.645Z,20.79
2022-08-12T20:43:06.977Z,20.70
2022-08-12T20:45:50.644Z,20.71
2022-08-12T20:48:21.543Z,20.77
2022-08-12T20:50:53.422Z,20.73
2022-08-12T20:53:28.946Z,20.72
2022-08-12T20:56:30.936Z,20.64
2022-08-12T20:59:01.016Z,20.54
2022-08-12T21:01:47.085Z,20.46
2022-08-12T21:04:35.738Z,20.51
2022-08-12T21:07:08.457Z,20.52
2022-08-12T21:09:41.512Z,20.64
2022-08-12T21:12:31.408Z,20.83
2022-08-12T21:15:23.789Z,20.81
2022-08-12T21:18:08.859Z,20.79
2022-08-12T21:20:38.312Z,20.71
2022-08-12T21:23:07.454Z,20.56
2022-08-12T21:25:44.310Z,20.47
2022-08-12T21:28:13.062Z,20.37
2022-08-12T21:30:54.757Z,20.32
2022-08-12T21:34:06.255Z,20.34
2022-08-12T21:36:22.857Z,20.30
2022-08-12T21:39:17.618Z,20.15
2022-08-12T21:41:51.100Z,20.02
2022-08-12T21:44:23.941Z,20.01
2022-08-12T21:47:12.047Z,19.96
2022-08-12T21:50:02.226Z,19.89
2022-08-12T21:52:34.670Z,19.85
2022-08-12T21:55:20.189Z,19.80
2022-08-12T21:57:53.477Z,19.76
2022-08-12T22:00:23.763Z,19.69
2022-08-12T22:03:09.309Z,19.67
2022-08-12T22:05:56.418Z,19.63
2022-08-12T22:08:26.041Z,19.61
2022-08-12T22:10:56.270Z,19.69
2022-08-12T22:14:02.165Z,20.04
2022-08-12T22:16:14.986Z,20.11
2022-08-12T22:18:48.072Z,20.34
2022-08-12T22:21:22.096Z,20.37
2022-08-12T22:24:05.426Z,20.33
2022-08-12T22:26:37.527Z,20.62
2022-08-12T22:29:27.527Z,20.68
2022-08-12T22:31:56.373Z,21.12
2022-08-12T22:34:33.159Z,21.23
2022-08-12T22:37:05.518Z,21.25
2022-08-12T22:39:43.981Z,21.18
2022-08-12T22:42:30.733Z,21.44
2022-08-12T22:45:16.981Z,21.07
2022-08-12T22:47:54.301Z,20.89
2022-08-12T22:50:28.512Z,21.12
2022-08-12T22:53:15.057Z,20.90
2022-08-12T22:55:59.335Z,21.13
2022-08-12T22:58:36.538Z,21.17
2022-08-12T23:01:05.929Z,21.28
2022-08-12T23:03:48.088Z,21.33
2022-08-12T23:06:20.153Z,21.16
2022-08-12T23:08:50.691Z,20.97
2022-08-12T23:11:23.914Z,20.87
2022-08-12T23:13:56.849Z,20.89
2022-08-12T23:16:31.890Z,20.98
2022-08-12T23:19:10.310Z,21.05
2022-08-12T23:22:04.976Z,20.96
2022-08-12T23:24:55.748Z,21.16
2022-08-12T23:27:51.671Z,20.99
2022-08-12T23:30:32.428Z,20.85
2022-08-12T23:33:13.018Z,20.60
2022-08-12T23:35:45.608Z,20.48
2022-08-12T23:38:30.745Z,20.29
2022-08-12T23:41:03.576Z,20.17
2022-08-12T23:43:39.325Z,20.02
2022-08-12T23:46:11.203Z,19.88
2022-08-12T23:48:40.903Z,19.75
2022-08-12T23:51:22.749Z,19.63
2022-08-12T23:53:59.794Z,19.66
2022-08-12T23:56:32.669Z,19.51
2022-08-12T23:59:00.712Z,19.38
